Time;durP1;ratioP1;P1;durP2;ratioP2;P2;SDS_P1;SDS_P2;PMS_P1;PMS_P2;Temp;Humidity;BMP_temperature;BMP_pressure;BME280_temperature;BME280_humidity;BME280_pressure;Samples;Min_cycle;Max_cycle;Signal;HPM_P1;HPM_P2
2023/04/13 12:03:13;;;;;;;2.87;0.60;;;14.20;99.90;;;;;;4859143;29;20292;-73
2023/04/13 12:05:41;;;;;;;2.33;0.40;;;14.30;99.80;;;;;;4861444;29;20276;-73
2023/04/13 12:08:09;;;;;;;2.73;0.50;;;14.30;99.90;;;;;;4861152;29;20232;-73
2023/04/13 12:10:37;;;;;;;5.47;0.70;;;14.30;99.90;;;;;;4861296;29;20220;-72
2023/04/13 12:13:07;;;;;;;3.50;0.60;;;14.50;99.90;;;;;;4861158;29;20215;-72
2023/04/13 12:15:36;;;;;;;2.60;0.50;;;14.50;99.90;;;;;;4861341;29;20254;-73
2023/04/13 12:18:04;;;;;;;5.17;0.50;;;14.30;99.90;;;;;;4861261;29;20232;-73
2023/04/13 12:20:37;;;;;;;3.10;0.37;;;13.90;98.70;;;;;;4859782;29;20216;-73
2023/04/13 12:23:05;;;;;;;2.10;0.50;;;13.80;99.90;;;;;;4860135;29;20218;-74
2023/04/13 12:25:32;;;;;;;2.97;0.47;;;14.00;99.10;;;;;;4859946;29;20260;-73
2023/04/13 12:27:59;;;;;;;2.20;0.50;;;14.30;99.60;;;;;;4859725;29;20232;-73
2023/04/13 12:30:26;;;;;;;1.73;0.40;;;14.60;98.80;;;;;;4870616;29;20240;-73
2023/04/13 12:32:54;;;;;;;2.97;0.63;;;14.70;98.90;;;;;;4878645;29;20211;-73
2023/04/13 12:35:21;;;;;;;2.30;0.40;;;14.80;99.30;;;;;;4878227;29;20717;-73
2023/04/13 12:37:51;;;;;;;0.77;0.33;;;14.60;98.40;;;;;;4877905;29;20235;-73
2023/04/13 12:40:18;;;;;;;1.53;0.40;;;14.30;98.50;;;;;;4862754;29;20215;-73
2023/04/13 12:42:46;;;;;;;2.70;0.50;;;14.00;98.50;;;;;;4859779;29;20216;-73
2023/04/13 12:45:14;;;;;;;1.17;0.30;;;14.10;99.30;;;;;;4860002;29;20261;-73
2023/04/13 12:47:41;;;;;;;1.60;0.50;;;13.90;98.70;;;;;;4859365;29;20291;-73
2023/04/13 12:50:10;;;;;;;2.97;0.40;;;13.80;98.60;;;;;;4867790;29;20651;-73
2023/04/13 12:52:40;;;;;;;2.73;0.50;;;13.70;98.60;;;;;;4885011;29;20316;-72
2023/04/13 12:55:09;;;;;;;3.60;0.40;;;13.90;98.20;;;;;;4884497;29;20242;-74
2023/04/13 12:57:36;;;;;;;1.17;0.40;;;14.20;98.10;;;;;;4884190;29;20332;-73
2023/04/13 13:00:09;;;;;;;0.60;0.30;;;14.30;96.60;;;;;;4884504;29;20211;-73
2023/04/13 13:02:36;;;;;;;0.90;0.60;;;14.30;96.90;;;;;;4884282;29;20613;-73
2023/04/13 13:05:03;;;;;;;4.07;0.80;;;14.10;98.20;;;;;;4884374;29;20218;-70
2023/04/13 13:07:31;;;;;;;1.60;0.50;;;14.00;98.10;;;;;;4883941;29;20242;-70
2023/04/13 13:09:59;;;;;;;1.47;0.57;;;14.10;99.30;;;;;;4884391;29;20222;-71
2023/04/13 13:12:29;;;;;;;2.20;0.40;;;14.20;98.50;;;;;;4867643;29;20208;-74
2023/04/13 13:14:57;;;;;;;1.33;0.40;;;13.80;98.50;;;;;;4862920;29;20331;-74
2023/04/13 13:17:24;;;;;;;1.03;0.20;;;13.80;98.60;;;;;;4864865;29;20212;-73
2023/04/13 13:19:50;;;;;;;2.03;0.33;;;13.90;97.60;;;;;;4871078;29;20226;-74
2023/04/13 13:22:17;;;;;;;1.07;0.40;;;14.10;97.70;;;;;;4870493;29;20687;-74
2023/04/13 13:24:44;;;;;;;0.77;0.33;;;14.30;96.80;;;;;;4864721;29;20668;-73
2023/04/13 13:27:11;;;;;;;2.57;0.70;;;14.30;97.00;;;;;;4865570;29;20247;-73
2023/04/13 13:29:39;;;;;;;0.43;0.30;;;14.50;97.10;;;;;;4869434;29;20226;-73
2023/04/13 13:32:06;;;;;;;3.13;0.43;;;14.60;97.20;;;;;;4883613;29;20215;-73
2023/04/13 13:34:33;;;;;;;2.33;0.40;;;14.70;97.00;;;;;;4883806;29;20239;-74
2023/04/13 13:36:59;;;;;;;1.77;0.40;;;14.80;96.90;;;;;;4883922;29;20213;-74
2023/04/13 13:39:26;;;;;;;1.93;0.30;;;14.80;97.90;;;;;;4883461;29;20686;-74
2023/04/13 13:41:53;;;;;;;1.33;0.47;;;14.80;98.20;;;;;;4883896;29;20211;-73
2023/04/13 13:44:20;;;;;;;1.07;0.47;;;14.80;98.10;;;;;;4883683;29;20741;-74
2023/04/13 13:46:48;;;;;;;3.33;0.50;;;14.70;98.10;;;;;;4883813;29;20578;-74
2023/04/13 13:49:15;;;;;;;2.67;0.47;;;14.80;97.90;;;;;;4872595;29;20235;-74
2023/04/13 13:51:42;;;;;;;1.33;0.53;;;15.10;98.00;;;;;;4864773;29;20211;-75
2023/04/13 13:54:09;;;;;;;2.03;0.30;;;15.30;97.40;;;;;;4877418;29;20221;-74
2023/04/13 13:56:36;;;;;;;1.87;0.37;;;15.20;97.30;;;;;;4884746;29;20207;-74
2023/04/13 13:59:03;;;;;;;0.90;0.30;;;15.40;97.30;;;;;;4884991;29;20231;-73
2023/04/13 14:01:30;;;;;;;1.60;0.40;;;15.40;95.90;;;;;;4884938;29;20271;-74
2023/04/13 14:03:59;;;;;;;3.83;0.50;;;15.40;95.60;;;;;;4882165;29;20219;-74
2023/04/13 14:06:26;;;;;;;2.37;0.53;;;15.30;94.60;;;;;;4882051;29;20248;-73
2023/04/13 14:08:54;;;;;;;1.17;0.30;;;15.50;95.40;;;;;;4881798;29;20231;-74
2023/04/13 14:11:21;;;;;;;3.43;0.60;;;15.70;94.50;;;;;;4881778;29;20208;-74
2023/04/13 14:13:49;;;;;;;0.77;0.30;;;15.80;95.40;;;;;;4882006;29;20218;-73
2023/04/13 14:16:16;;;;;;;3.10;0.80;;;15.60;94.30;;;;;;4881580;29;20746;-73
2023/04/13 14:18:42;;;;;;;2.17;0.30;;;15.50;94.80;;;;;;4881564;29;20235;-73
2023/04/13 14:21:11;;;;;;;3.60;0.40;;;15.40;96.00;;;;;;4881760;29;20211;-73
2023/04/13 14:23:39;;;;;;;2.30;0.60;;;15.40;96.20;;;;;;4876681;29;20222;-73
2023/04/13 14:26:05;;;;;;;0.90;0.60;;;15.20;95.50;;;;;;4862091;29;20235;-73
2023/04/13 14:28:32;;;;;;;7.83;0.80;;;15.10;96.30;;;;;;4862354;29;20239;-73
2023/04/13 14:30:59;;;;;;;4.60;0.80;;;15.00;96.70;;;;;;4857911;29;20242;-73
2023/04/13 14:33:26;;;;;;;3.20;0.60;;;14.90;96.70;;;;;;4853690;29;20216;-73
2023/04/13 14:35:53;;;;;;;7.43;0.80;;;14.80;96.10;;;;;;4849601;29;20232;-74
2023/04/13 14:38:22;;;;;;;3.00;0.70;;;14.70;96.80;;;;;;4848303;29;20224;-73
2023/04/13 14:40:49;;;;;;;2.90;0.60;;;14.70;96.90;;;;;;4846930;29;20209;-73
2023/04/13 14:43:16;;;;;;;5.10;0.87;;;14.80;97.00;;;;;;4857371;29;20220;-72
2023/04/13 14:45:43;;;;;;;1.80;0.60;;;14.70;98.00;;;;;;4857967;29;20204;-71
2023/04/13 14:48:10;;;;;;;2.30;0.40;;;14.90;98.30;;;;;;4858881;29;20240;-71
2023/04/13 14:50:38;;;;;;;2.60;0.53;;;15.10;96.90;;;;;;4853655;29;20624;-71
2023/04/13 14:53:06;;;;;;;4.67;0.57;;;14.90;97.00;;;;;;4850072;29;20272;-71
2023/04/13 14:55:34;;;;;;;2.90;0.50;;;14.90;97.10;;;;;;4851370;29;20251;-71
2023/04/13 14:58:02;;;;;;;2.97;0.40;;;14.70;96.80;;;;;;4859753;29;20228;-72
2023/04/13 15:00:38;;;;;;;1.93;0.53;;;14.80;95.70;;;;;;4849386;29;20213;-71
2023/04/13 15:03:05;;;;;;;2.80;0.90;;;14.80;95.20;;;;;;4859027;29;20216;-71
2023/04/13 15:05:36;;;;;;;2.87;0.60;;;14.80;95.90;;;;;;4850108;29;20223;-71
2023/04/13 15:08:04;;;;;;;4.10;0.70;;;14.70;96.00;;;;;;4859098;29;20229;-71
2023/04/13 15:10:33;;;;;;;4.30;0.47;;;14.80;96.10;;;;;;4844653;29;20277;-71
2023/04/13 15:13:02;;;;;;;5.20;0.87;;;14.90;96.60;;;;;;4854886;29;20309;-72
2023/04/13 15:15:31;;;;;;;4.00;0.97;;;15.00;96.50;;;;;;4860774;29;20272;-71
2023/04/13 15:17:57;;;;;;;1.30;0.53;;;14.90;95.70;;;;;;4861172;29;20243;-72
2023/04/13 15:20:24;;;;;;;1.13;0.30;;;14.80;94.90;;;;;;4859876;29;20643;-71
2023/04/13 15:22:51;;;;;;;3.13;1.43;;;14.70;93.80;;;;;;4860820;29;20218;-72
2023/04/13 15:25:18;;;;;;;1.70;0.40;;;14.50;93.80;;;;;;4850303;29;20684;-71
2023/04/13 15:27:47;;;;;;;1.87;0.43;;;14.40;94.60;;;;;;4850454;29;20228;-71
2023/04/13 15:30:16;;;;;;;2.80;0.60;;;14.60;95.00;;;;;;4849870;29;20557;-72
2023/04/13 15:32:42;;;;;;;3.10;0.60;;;14.80;94.10;;;;;;4855717;29;20213;-71
2023/04/13 15:35:11;;;;;;;2.67;0.50;;;14.90;94.10;;;;;;4849021;29;20240;-71
2023/04/13 15:37:38;;;;;;;1.57;0.30;;;15.00;94.50;;;;;;4849333;29;20244;-72
2023/04/13 15:40:06;;;;;;;0.70;0.30;;;14.90;93.80;;;;;;4858851;29;20271;-71
2023/04/13 15:42:33;;;;;;;2.43;0.50;;;15.00;94.60;;;;;;4852981;29;20263;-71
2023/04/13 15:45:00;;;;;;;2.67;0.50;;;15.20;94.80;;;;;;4847219;29;20227;-71
2023/04/13 15:47:28;;;;;;;3.03;0.70;;;14.90;96.10;;;;;;4850456;29;20571;-74
2023/04/13 15:49:55;;;;;;;1.90;0.40;;;14.30;97.50;;;;;;4858449;29;20219;-72
2023/04/13 15:52:22;;;;;;;1.27;0.40;;;13.90;98.00;;;;;;4852310;29;20223;-72
2023/04/13 15:54:49;;;;;;;3.80;0.50;;;13.40;97.70;;;;;;4856211;29;20208;-72
2023/04/13 15:57:16;;;;;;;4.63;0.70;;;13.40;97.70;;;;;;4854454;29;20208;-71
2023/04/13 15:59:43;;;;;;;1.50;0.57;;;13.40;97.70;;;;;;4858431;29;20303;-71
2023/04/13 16:02:10;;;;;;;2.63;0.60;;;13.30;98.10;;;;;;4850824;29;20216;-71
2023/04/13 16:04:38;;;;;;;1.87;0.40;;;13.30;98.10;;;;;;4855473;29;20214;-72
2023/04/13 16:07:05;;;;;;;2.90;0.67;;;13.40;98.40;;;;;;4857937;29;20223;-72
2023/04/13 16:09:33;;;;;;;1.20;0.50;;;13.30;98.20;;;;;;4856722;29;20237;-71
2023/04/13 16:12:01;;;;;;;1.10;0.30;;;13.10;98.10;;;;;;4856928;29;20220;-73
2023/04/13 16:14:28;;;;;;;3.97;0.80;;;12.90;98.20;;;;;;4859669;29;20215;-73
2023/04/13 16:16:58;;;;;;;3.57;0.50;;;12.70;98.80;;;;;;4856281;29;20330;-71
2023/04/13 16:19:26;;;;;;;3.50;0.90;;;12.60;99.40;;;;;;4859491;29;20259;-71
2023/04/13 16:21:54;;;;;;;1.67;0.60;;;12.30;99.50;;;;;;4858833;29;20216;-72
2023/04/13 16:24:21;;;;;;;3.93;0.60;;;12.00;99.90;;;;;;4860736;29;20690;-72
2023/04/13 16:26:48;;;;;;;3.93;0.97;;;11.90;99.90;;;;;;4860105;29;20267;-72
2023/04/13 16:29:15;;;;;;;4.53;1.07;;;11.80;99.90;;;;;;4859468;29;20263;-72
2023/04/13 16:31:43;;;;;;;2.23;0.60;;;11.80;99.90;;;;;;4860744;29;20219;-72
2023/04/13 16:34:10;;;;;;;2.50;0.77;;;11.80;99.90;;;;;;4859009;29;20240;-72
2023/04/13 16:36:37;;;;;;;3.70;0.80;;;11.70;99.90;;;;;;4860056;29;20711;-73
2023/04/13 16:39:09;;;;;;;3.33;0.60;;;11.60;99.90;;;;;;4858925;29;20288;-72
2023/04/13 16:41:36;;;;;;;3.93;0.40;;;11.70;99.90;;;;;;4860578;29;20299;-72
2023/04/13 16:44:03;;;;;;;3.27;0.57;;;11.80;99.90;;;;;;4860603;29;20235;-72
2023/04/13 16:46:30;;;;;;;1.93;0.50;;;11.90;99.90;;;;;;4860842;29;20216;-73
2023/04/13 16:48:57;;;;;;;8.33;1.77;;;12.00;99.90;;;;;;4860754;29;20326;-73
2023/04/13 16:51:25;;;;;;;5.10;0.57;;;12.20;99.90;;;;;;4860758;29;20223;-73
2023/04/13 16:53:52;;;;;;;3.53;0.60;;;12.10;99.90;;;;;;4860668;29;20219;-73
2023/04/13 16:56:21;;;;;;;2.23;0.67;;;12.00;99.90;;;;;;4860586;29;20741;-73
2023/04/13 16:58:48;;;;;;;1.70;0.40;;;12.00;99.90;;;;;;4860382;29;20243;-72
2023/04/13 17:01:15;;;;;;;3.57;0.40;;;11.80;99.90;;;;;;4860785;29;20224;-73
2023/04/13 17:03:42;;;;;;;1.87;0.33;;;11.70;99.90;;;;;;4860602;29;20234;-73
2023/04/13 17:06:09;;;;;;;0.40;0.37;;;11.60;99.90;;;;;;4860520;29;20291;-72
2023/04/13 17:08:36;;;;;;;2.83;0.50;;;11.50;99.90;;;;;;4860639;29;20235;-72
2023/04/13 17:11:03;;;;;;;1.33;0.33;;;11.60;99.90;;;;;;4860310;29;20227;-72
2023/04/13 17:13:31;;;;;;;1.67;0.30;;;11.60;99.90;;;;;;4860556;29;20315;-72
2023/04/13 17:15:58;;;;;;;2.13;0.30;;;11.60;99.90;;;;;;4860766;29;20239;-72
2023/04/13 17:18:26;;;;;;;2.20;0.40;;;11.60;99.90;;;;;;4860527;29;20402;-73
2023/04/13 17:20:53;;;;;;;4.20;0.70;;;11.70;99.90;;;;;;4860359;29;20212;-72
2023/04/13 17:23:21;;;;;;;0.93;0.70;;;11.70;99.90;;;;;;4860415;29;20571;-72
2023/04/13 17:25:48;;;;;;;1.30;0.40;;;11.70;99.90;;;;;;4860319;29;20314;-72
2023/04/13 17:28:15;;;;;;;2.20;0.33;;;11.60;99.90;;;;;;4860265;29;20232;-72
2023/04/13 17:30:43;;;;;;;0.40;0.30;;;11.50;99.90;;;;;;4860401;29;20299;-72
2023/04/13 17:33:09;;;;;;;2.30;0.57;;;11.40;99.90;;;;;;4860235;29;20212;-72
2023/04/13 17:35:36;;;;;;;1.30;0.43;;;11.30;99.90;;;;;;4860371;29;20236;-73
2023/04/13 17:38:03;;;;;;;1.50;0.60;;;11.30;99.90;;;;;;4862011;29;20598;-72
2023/04/13 17:40:30;;;;;;;4.00;2.13;;;11.40;99.90;;;;;;4863440;29;20306;-72
2023/04/13 17:42:57;;;;;;;2.77;0.80;;;11.20;99.90;;;;;;4863816;29;20216;-71
2023/04/13 17:45:23;;;;;;;3.60;0.50;;;11.10;99.90;;;;;;4863400;29;20697;-71
2023/04/13 17:47:52;;;;;;;1.30;0.47;;;11.00;99.90;;;;;;4863329;29;20239;-71
2023/04/13 17:50:18;;;;;;;1.10;0.60;;;11.00;99.90;;;;;;4863477;29;20212;-71
2023/04/13 17:52:46;;;;;;;1.50;0.63;;;10.90;99.90;;;;;;4863300;29;20216;-71
2023/04/13 17:55:13;;;;;;;1.10;0.50;;;10.90;99.90;;;;;;4862954;29;20609;-71
2023/04/13 17:57:40;;;;;;;1.17;0.33;;;10.90;99.90;;;;;;4864102;29;20244;-72
2023/04/13 18:00:08;;;;;;;1.53;0.50;;;10.80;99.90;;;;;;4863234;29;20562;-71
2023/04/13 18:02:37;;;;;;;1.20;0.40;;;10.70;99.90;;;;;;4862933;29;20226;-71
2023/04/13 18:05:09;;;;;;;1.13;0.50;;;10.70;99.90;;;;;;4862715;29;20208;-71
2023/04/13 18:07:36;;;;;;;1.80;0.60;;;10.60;99.90;;;;;;4863190;29;20280;-72
2023/04/13 18:10:04;;;;;;;2.67;0.40;;;10.50;99.90;;;;;;4863258;29;20219;-71
2023/04/13 18:12:31;;;;;;;4.77;1.10;;;10.50;99.90;;;;;;4862927;29;20216;-71
2023/04/13 18:14:58;;;;;;;1.63;0.50;;;10.50;99.90;;;;;;4862907;29;20215;-71
2023/04/13 18:17:24;;;;;;;0.80;0.40;;;10.40;99.90;;;;;;4862766;29;20251;-71
2023/04/13 18:19:52;;;;;;;2.40;0.40;;;10.30;99.90;;;;;;4863038;29;20583;-71
2023/04/13 18:22:20;;;;;;;1.60;0.30;;;10.30;99.90;;;;;;4863082;29;20219;-71
2023/04/13 18:24:47;;;;;;;0.97;0.40;;;10.30;99.90;;;;;;4863249;29;20208;-71
2023/04/13 18:27:14;;;;;;;5.30;0.60;;;10.30;99.90;;;;;;4863088;29;20219;-71
2023/04/13 18:29:41;;;;;;;3.17;1.40;;;10.20;99.90;;;;;;4862946;29;20231;-71
2023/04/13 18:32:08;;;;;;;3.00;0.70;;;10.20;99.90;;;;;;4862412;29;20218;-72
2023/04/13 18:34:35;;;;;;;1.10;0.40;;;10.20;99.90;;;;;;4862743;29;20208;-71
2023/04/13 18:37:02;;;;;;;1.97;0.60;;;10.10;99.90;;;;;;4862894;29;20236;-71
2023/04/13 18:39:30;;;;;;;3.10;0.50;;;10.00;99.90;;;;;;4862766;29;20243;-71
2023/04/13 18:41:57;;;;;;;3.27;0.50;;;10.00;99.90;;;;;;4862943;29;20264;-72
2023/04/13 18:44:24;;;;;;;3.73;0.90;;;9.90;99.90;;;;;;4862762;29;20208;-71
2023/04/13 18:46:51;;;;;;;1.30;0.50;;;9.90;99.90;;;;;;4862508;29;20676;-71
2023/04/13 18:49:18;;;;;;;2.50;0.40;;;9.90;99.90;;;;;;4862011;29;20236;-71
2023/04/13 18:51:45;;;;;;;3.03;0.50;;;9.80;99.90;;;;;;4862439;29;20215;-72
2023/04/13 18:54:11;;;;;;;3.27;0.50;;;9.70;99.90;;;;;;4862373;29;20676;-71
2023/04/13 18:56:40;;;;;;;2.30;0.63;;;9.70;99.90;;;;;;4862732;29;20251;-71
2023/04/13 18:59:06;;;;;;;1.70;0.43;;;9.60;99.90;;;;;;4862477;29;20236;-71
2023/04/13 19:01:33;;;;;;;1.13;0.50;;;9.60;99.90;;;;;;4862463;29;20222;-70
2023/04/13 19:04:01;;;;;;;3.20;0.60;;;9.50;99.90;;;;;;4862337;29;20208;-71
2023/04/13 19:06:28;;;;;;;1.53;0.50;;;9.50;99.90;;;;;;4862567;29;20218;-71
2023/04/13 19:08:54;;;;;;;2.47;0.43;;;9.50;99.90;;;;;;4862151;29;20232;-70
2023/04/13 19:11:26;;;;;;;3.53;0.70;;;9.50;99.90;;;;;;4862344;29;20306;-70
2023/04/13 19:13:54;;;;;;;2.20;0.50;;;9.50;99.90;;;;;;4862189;29;20216;-70
2023/04/13 19:16:21;;;;;;;2.33;0.60;;;9.50;99.90;;;;;;4862226;29;20247;-71
2023/04/13 19:18:47;;;;;;;1.43;0.60;;;9.50;99.90;;;;;;4862191;29;20266;-70
2023/04/13 19:21:17;;;;;;;1.70;0.60;;;9.50;99.90;;;;;;4862369;29;20216;-70
2023/04/13 19:23:43;;;;;;;1.90;0.80;;;9.40;99.90;;;;;;4862037;29;20229;-71
2023/04/13 19:26:10;;;;;;;1.00;0.60;;;9.20;99.90;;;;;;4861948;29;20216;-71
2023/04/13 19:28:37;;;;;;;3.00;0.77;;;9.20;99.90;;;;;;4861651;29;20587;-71
2023/04/13 19:31:05;;;;;;;2.60;0.67;;;9.10;99.90;;;;;;4862215;29;20211;-71
2023/04/13 19:33:34;;;;;;;1.50;0.80;;;9.10;99.90;;;;;;4861830;29;20227;-71
2023/04/13 19:36:04;;;;;;;2.93;0.70;;;9.00;99.90;;;;;;4862030;29;20223;-71
2023/04/13 19:38:31;;;;;;;4.27;0.67;;;8.90;99.90;;;;;;4861675;29;20235;-70
2023/04/13 19:40:58;;;;;;;8.00;1.40;;;8.90;99.90;;;;;;4861779;29;20222;-71
2023/04/13 19:43:26;;;;;;;2.90;1.50;;;8.80;99.90;;;;;;4861618;29;20208;-71
2023/04/13 19:45:54;;;;;;;1.20;0.63;;;8.70;99.90;;;;;;4861895;29;20219;-71
2023/04/13 19:48:22;;;;;;;2.73;0.73;;;8.80;99.90;;;;;;4861593;29;20240;-71
2023/04/13 19:50:49;;;;;;;3.67;1.30;;;8.80;99.90;;;;;;4861617;29;20208;-71
2023/04/13 19:53:15;;;;;;;2.57;0.60;;;8.70;99.90;;;;;;4861584;29;20212;-71
2023/04/13 19:55:42;;;;;;;3.57;0.80;;;8.70;99.90;;;;;;4861369;29;20212;-71
2023/04/13 19:58:09;;;;;;;3.80;1.40;;;8.60;99.90;;;;;;4861054;29;20243;-71
2023/04/13 20:00:36;;;;;;;3.50;0.93;;;8.60;99.90;;;;;;4860907;29;20686;-71
2023/04/13 20:03:03;;;;;;;3.70;0.60;;;8.60;99.90;;;;;;4861044;29;20318;-70
2023/04/13 20:05:31;;;;;;;4.27;0.90;;;8.50;99.90;;;;;;4861117;29;20675;-71
2023/04/13 20:07:58;;;;;;;1.43;0.60;;;8.60;99.90;;;;;;4861138;29;20709;-71
2023/04/13 20:10:25;;;;;;;3.43;0.93;;;8.50;99.90;;;;;;4860861;29;20215;-71
2023/04/13 20:12:52;;;;;;;4.83;0.90;;;8.50;99.90;;;;;;4861524;29;20231;-71
2023/04/13 20:15:18;;;;;;;3.57;0.90;;;8.50;99.90;;;;;;4861383;29;20218;-70
2023/04/13 20:17:46;;;;;;;1.37;0.70;;;8.50;99.90;;;;;;4861105;29;20248;-71
2023/04/13 20:20:14;;;;;;;4.67;0.90;;;8.50;99.90;;;;;;4860950;29;20671;-71
2023/04/13 20:22:42;;;;;;;1.10;0.60;;;8.50;99.90;;;;;;4860887;29;20227;-71
2023/04/13 20:25:09;;;;;;;3.83;1.07;;;8.40;99.90;;;;;;4860925;29;20247;-71
2023/04/13 20:27:40;;;;;;;3.17;0.80;;;8.40;99.90;;;;;;4860872;29;20263;-71
2023/04/13 20:30:08;;;;;;;4.80;0.90;;;8.40;99.90;;;;;;4860621;29;20212;-71
2023/04/13 20:32:35;;;;;;;4.47;0.90;;;8.40;99.90;;;;;;4860576;29;20216;-71
2023/04/13 20:35:02;;;;;;;4.33;0.90;;;8.40;99.90;;;;;;4860660;29;20298;-71
2023/04/13 20:37:29;;;;;;;5.60;0.83;;;8.30;99.90;;;;;;4860718;29;20239;-71
2023/04/13 20:39:57;;;;;;;3.67;1.23;;;8.40;99.90;;;;;;4860824;29;20218;-71
2023/04/13 20:42:24;;;;;;;4.23;1.10;;;8.30;99.90;;;;;;4860855;29;20216;-71
2023/04/13 20:44:56;;;;;;;3.27;0.83;;;8.30;99.90;;;;;;4860759;29;20664;-71
2023/04/13 20:47:24;;;;;;;5.77;1.10;;;8.30;99.90;;;;;;4860299;29;20216;-71
2023/04/13 20:49:53;;;;;;;3.07;1.00;;;8.30;99.90;;;;;;4860509;29;20208;-71
2023/04/13 20:52:22;;;;;;;5.23;1.60;;;8.30;99.90;;;;;;4860819;29;20219;-71
2023/04/13 20:54:49;;;;;;;4.10;0.90;;;8.30;99.90;;;;;;4860484;29;20667;-72
2023/04/13 20:57:18;;;;;;;2.87;0.93;;;8.30;99.90;;;;;;4860786;29;20236;-70
2023/04/13 20:59:45;;;;;;;4.73;1.37;;;8.20;99.90;;;;;;4860499;29;20216;-71
2023/04/13 21:02:13;;;;;;;4.40;1.00;;;8.20;99.90;;;;;;4860260;29;20668;-70
2023/04/13 21:04:40;;;;;;;2.93;1.00;;;8.20;99.90;;;;;;4860446;29;20216;-71
2023/04/13 21:07:09;;;;;;;4.43;0.93;;;8.20;99.90;;;;;;4860681;29;20285;-71
2023/04/13 21:09:36;;;;;;;3.57;1.10;;;8.00;99.90;;;;;;4860353;29;20284;-71
2023/04/13 21:12:04;;;;;;;4.50;1.30;;;8.00;99.90;;;;;;4861022;29;20693;-71
2023/04/13 21:14:35;;;;;;;5.10;1.17;;;8.00;99.90;;;;;;4864190;29;20222;-72
2023/04/13 21:17:02;;;;;;;5.03;1.40;;;8.00;99.90;;;;;;4864971;29;20240;-70
2023/04/13 21:19:28;;;;;;;3.27;0.90;;;8.10;99.90;;;;;;4864309;29;20259;-71
2023/04/13 21:21:56;;;;;;;2.43;1.10;;;8.10;99.90;;;;;;4864082;29;20216;-70
2023/04/13 21:24:23;;;;;;;3.03;1.10;;;8.00;99.90;;;;;;4864241;29;20219;-70
2023/04/13 21:26:50;;;;;;;7.50;1.57;;;8.10;99.90;;;;;;4863977;29;20252;-70
2023/04/13 21:29:18;;;;;;;7.27;1.03;;;8.10;99.90;;;;;;4863855;29;20234;-70
2023/04/13 21:31:47;;;;;;;4.93;1.30;;;8.10;99.90;;;;;;4863985;29;20215;-70
2023/04/13 21:34:14;;;;;;;6.23;0.87;;;8.10;99.90;;;;;;4864202;29;20223;-70
2023/04/13 21:36:43;;;;;;;4.03;0.90;;;8.10;99.90;;;;;;4859827;29;20212;-71
